createdAt,value
2023-07-26T00:00:20.469Z,5.50
2023-07-26T00:03:08.827Z,5.50
2023-07-26T00:05:37.780Z,6.00
2023-07-26T00:08:06.198Z,6.00
2023-07-26T00:10:34.897Z,5.25
2023-07-26T00:13:03.377Z,5.50
2023-07-26T00:15:32.149Z,6.50
2023-07-26T00:18:00.557Z,6.00
2023-07-26T00:20:29.551Z,5.75
2023-07-26T00:22:58.021Z,6.00
2023-07-26T00:25:26.779Z,6.00
2023-07-26T00:27:55.110Z,6.50
2023-07-26T00:30:24.567Z,6.00
2023-07-26T00:32:52.887Z,5.67
2023-07-26T00:35:23.173Z,5.67
2023-07-26T00:37:51.767Z,7.00
2023-07-26T00:40:20.798Z,6.50
2023-07-26T00:42:49.126Z,5.25
2023-07-26T00:45:17.820Z,6.00
2023-07-26T00:47:46.946Z,6.00
2023-07-26T00:50:15.733Z,5.50
2023-07-26T00:52:44.589Z,6.50
2023-07-26T00:55:14.513Z,6.00
2023-07-26T00:57:44.004Z,7.00
2023-07-26T01:00:13.433Z,6.50
2023-07-26T01:02:41.906Z,6.25
2023-07-26T01:05:12.001Z,5.25
2023-07-26T01:07:55.152Z,7.00
2023-07-26T01:10:36.661Z,7.00
2023-07-26T01:13:42.090Z,6.00
2023-07-26T01:16:11.387Z,7.00
2023-07-26T01:18:39.748Z,6.50
2023-07-26T01:21:08.532Z,7.00
2023-07-26T01:23:36.995Z,6.00
2023-07-26T01:26:06.541Z,6.25
2023-07-26T01:28:34.892Z,6.00
2023-07-26T01:31:06.443Z,6.50
2023-07-26T01:33:36.266Z,6.00
2023-07-26T01:36:06.220Z,7.00
2023-07-26T01:38:34.953Z,6.33
2023-07-26T01:41:04.554Z,6.25
2023-07-26T01:43:33.436Z,6.00
2023-07-26T01:46:02.114Z,6.00
2023-07-26T01:48:30.603Z,6.25
2023-07-26T01:50:59.170Z,6.50
2023-07-26T01:53:27.578Z,5.67
2023-07-26T01:55:56.239Z,6.50
2023-07-26T01:58:24.551Z,5.50
2023-07-26T02:00:53.177Z,6.25
2023-07-26T02:03:24.485Z,6.67
2023-07-26T02:05:53.109Z,6.33
2023-07-26T02:08:21.549Z,6.25
2023-07-26T02:10:50.647Z,6.00
2023-07-26T02:13:18.966Z,6.00
2023-07-26T02:15:48.229Z,5.75
2023-07-26T02:18:16.742Z,6.00
2023-07-26T02:20:45.439Z,6.00
2023-07-26T02:23:13.729Z,6.00
2023-07-26T02:25:42.465Z,5.50
2023-07-26T02:28:10.824Z,6.00
2023-07-26T02:30:40.041Z,5.50
2023-07-26T02:33:08.939Z,6.00
2023-07-26T02:35:38.892Z,6.00
2023-07-26T02:38:07.151Z,6.00
2023-07-26T02:40:38.009Z,6.33
2023-07-26T02:43:06.513Z,6.67
2023-07-26T02:45:36.012Z,6.00
2023-07-26T02:48:06.709Z,6.00
2023-07-26T02:50:35.501Z,5.50
2023-07-26T02:53:03.846Z,6.25
2023-07-26T02:55:32.767Z,6.00
2023-07-26T02:58:01.121Z,6.50
2023-07-26T03:00:29.889Z,6.00
2023-07-26T03:02:58.335Z,6.25
2023-07-26T03:05:27.286Z,6.50
2023-07-26T03:07:55.756Z,6.00
2023-07-26T03:10:25.264Z,7.00
2023-07-26T03:12:53.720Z,6.00
2023-07-26T03:15:23.036Z,7.00
2023-07-26T03:17:51.630Z,6.50
2023-07-26T03:20:20.496Z,6.67
2023-07-26T03:22:48.930Z,7.50
2023-07-26T03:25:17.588Z,7.00
2023-07-26T03:27:46.007Z,7.00
2023-07-26T03:30:14.659Z,7.00
2023-07-26T03:32:42.993Z,6.25
2023-07-26T03:35:11.693Z,6.50
2023-07-26T03:37:39.989Z,6.25
2023-07-26T03:40:09.200Z,7.00
2023-07-26T03:42:37.582Z,8.00
2023-07-26T03:45:06.795Z,7.00
2023-07-26T03:47:35.245Z,7.67
2023-07-26T03:50:03.994Z,7.50
2023-07-26T03:52:32.399Z,7.00
2023-07-26T03:55:01.122Z,7.00
2023-07-26T03:57:29.522Z,7.00
2023-07-26T03:59:58.122Z,7.00
2023-07-26T04:02:26.755Z,7.25
2023-07-26T04:04:55.740Z,6.50
2023-07-26T04:07:24.152Z,6.33
2023-07-26T04:09:52.890Z,7.00
2023-07-26T04:12:21.188Z,6.50
2023-07-26T04:14:50.000Z,7.00
2023-07-26T04:17:19.042Z,6.75
2023-07-26T04:19:47.665Z,7.00
2023-07-26T04:22:16.010Z,6.67
2023-07-26T04:24:45.540Z,6.67
2023-07-26T04:27:14.206Z,7.00
2023-07-26T04:29:44.022Z,6.00
2023-07-26T04:32:12.437Z,6.00
2023-07-26T04:34:41.409Z,6.00
2023-07-26T04:37:09.670Z,7.00
2023-07-26T04:39:38.330Z,6.50
2023-07-26T04:42:06.861Z,6.25
2023-07-26T04:44:35.609Z,6.25
2023-07-26T04:47:04.152Z,6.50
2023-07-26T04:49:32.744Z,6.50
2023-07-26T04:52:01.027Z,6.25
2023-07-26T04:54:30.025Z,6.00
2023-07-26T04:56:58.302Z,6.00
2023-07-26T04:59:27.043Z,6.25
2023-07-26T05:01:55.382Z,6.50
2023-07-26T05:04:24.055Z,5.50
2023-07-26T05:06:52.410Z,6.00
2023-07-26T05:09:21.251Z,6.67
2023-07-26T05:11:49.573Z,6.50
2023-07-26T05:14:18.699Z,6.00
2023-07-26T05:16:47.030Z,6.67
2023-07-26T05:19:15.804Z,6.25
2023-07-26T05:21:44.674Z,6.00
2023-07-26T05:24:13.380Z,6.50
2023-07-26T05:26:41.821Z,7.00
2023-07-26T05:29:10.531Z,6.25
2023-07-26T05:31:38.909Z,6.00
2023-07-26T05:34:07.669Z,6.67
2023-07-26T05:36:36.030Z,6.00
2023-07-26T05:39:04.837Z,6.50
2023-07-26T05:41:33.485Z,6.75
2023-07-26T05:44:02.402Z,5.75
2023-07-26T05:46:30.737Z,7.00
2023-07-26T05:48:59.501Z,6.00
2023-07-26T05:51:27.816Z,5.75
2023-07-26T05:53:56.496Z,6.75
2023-07-26T05:56:24.820Z,6.25
2023-07-26T05:58:53.503Z,6.50
2023-07-26T06:01:21.794Z,6.33
2023-07-26T06:03:51.417Z,6.75
2023-07-26T06:06:19.797Z,6.00
2023-07-26T06:08:48.834Z,6.00
2023-07-26T06:11:17.157Z,6.25
2023-07-26T06:13:45.756Z,6.00
2023-07-26T06:16:14.221Z,6.00
2023-07-26T06:18:43.250Z,7.00
2023-07-26T06:21:13.492Z,6.50
2023-07-26T06:23:42.731Z,6.25
2023-07-26T06:26:11.466Z,6.50
2023-07-26T06:28:40.415Z,7.00
2023-07-26T06:31:08.712Z,6.00
2023-07-26T06:33:37.548Z,6.00
2023-07-26T06:36:08.230Z,6.00
2023-07-26T06:38:37.028Z,6.00
2023-07-26T06:41:05.941Z,6.00
2023-07-26T06:43:34.573Z,5.50
2023-07-26T06:46:02.932Z,6.00
2023-07-26T06:48:31.630Z,5.50
2023-07-26T06:51:00.052Z,6.00
2023-07-26T06:53:28.811Z,5.25
2023-07-26T06:56:00.791Z,6.00
2023-07-26T06:58:29.663Z,6.00
2023-07-26T07:00:59.140Z,6.00
2023-07-26T07:03:29.669Z,5.50
2023-07-26T07:05:58.095Z,5.75
2023-07-26T07:08:27.292Z,6.00
2023-07-26T07:10:55.772Z,6.50
2023-07-26T07:13:24.489Z,5.67
2023-07-26T07:15:52.892Z,6.25
2023-07-26T07:18:21.729Z,5.75
2023-07-26T07:20:56.504Z,5.75
2023-07-26T07:23:26.458Z,6.00
2023-07-26T07:25:55.168Z,5.50
2023-07-26T07:28:23.877Z,5.67
2023-07-26T07:30:52.627Z,6.00
2023-07-26T07:33:21.406Z,5.75
2023-07-26T07:35:49.786Z,6.00
2023-07-26T07:38:18.593Z,6.00
2023-07-26T07:40:48.656Z,6.00
2023-07-26T07:43:17.440Z,5.75
2023-07-26T07:45:45.882Z,5.75
2023-07-26T07:48:14.844Z,6.00
2023-07-26T07:50:43.207Z,6.00
2023-07-26T07:53:12.394Z,5.00
2023-07-26T07:55:41.698Z,5.50
2023-07-26T07:58:10.372Z,5.75
2023-07-26T08:00:38.780Z,6.00
2023-07-26T08:03:07.715Z,5.75
2023-07-26T08:05:36.565Z,5.67
2023-07-26T08:08:07.723Z,5.00
2023-07-26T08:10:40.228Z,5.50
2023-07-26T08:13:08.911Z,6.00
2023-07-26T08:15:39.530Z,6.00
2023-07-26T08:18:09.042Z,5.75
2023-07-26T08:20:37.971Z,5.75
2023-07-26T08:23:06.859Z,6.00
2023-07-26T08:25:35.911Z,6.00
2023-07-26T08:28:04.830Z,6.00
2023-07-26T08:30:33.322Z,6.00
2023-07-26T08:33:02.193Z,6.00
2023-07-26T08:35:30.983Z,5.00
2023-07-26T08:37:59.744Z,6.00
2023-07-26T08:40:28.237Z,5.75
2023-07-26T08:43:00.477Z,6.00
2023-07-26T08:45:29.004Z,5.00
2023-07-26T08:47:58.199Z,5.00
2023-07-26T08:50:26.760Z,6.00
2023-07-26T08:52:55.440Z,6.00
2023-07-26T08:55:23.899Z,6.00
2023-07-26T08:57:53.298Z,5.67
2023-07-26T09:00:21.722Z,6.00
2023-07-26T09:02:52.338Z,5.25
2023-07-26T09:05:20.867Z,5.50
2023-07-26T09:07:52.985Z,6.00
2023-07-26T09:10:28.811Z,5.25
2023-07-26T09:13:11.274Z,6.00
2023-07-26T09:15:41.507Z,6.00
2023-07-26T09:18:11.240Z,5.50
2023-07-26T09:20:39.767Z,6.00
2023-07-26T09:23:12.916Z,5.75
2023-07-26T09:25:44.282Z,6.00
2023-07-26T09:28:17.207Z,5.25
2023-07-26T09:30:52.407Z,6.00
2023-07-26T09:33:23.475Z,5.00
2023-07-26T09:35:55.358Z,6.00
2023-07-26T09:38:25.779Z,6.00
2023-07-26T09:40:54.205Z,6.00
2023-07-26T09:43:33.787Z,6.00
2023-07-26T09:46:08.390Z,5.50
2023-07-26T09:49:00.563Z,5.75
2023-07-26T09:51:32.120Z,5.75
2023-07-26T09:54:01.098Z,5.00
2023-07-26T09:56:34.573Z,5.00
2023-07-26T09:59:03.435Z,6.00
2023-07-26T10:01:34.903Z,5.00
2023-07-26T10:04:05.452Z,5.00
2023-07-26T10:06:34.768Z,6.00
2023-07-26T10:09:03.398Z,5.00
2023-07-26T10:11:32.464Z,5.00
2023-07-26T10:14:01.798Z,5.00
2023-07-26T10:16:31.150Z,5.50
2023-07-26T10:19:00.334Z,5.00
2023-07-26T10:21:29.251Z,5.00
2023-07-26T10:23:59.936Z,6.00
2023-07-26T10:26:31.446Z,5.25
2023-07-26T10:29:01.151Z,6.00
2023-07-26T10:31:33.396Z,6.00
2023-07-26T10:34:01.727Z,6.00
2023-07-26T10:36:32.025Z,5.25
2023-07-26T10:39:05.224Z,5.00
2023-07-26T10:41:36.196Z,5.00
2023-07-26T10:44:09.284Z,6.00
2023-07-26T10:46:54.379Z,6.00
2023-07-26T10:49:27.715Z,5.00
2023-07-26T10:52:06.772Z,5.00
2023-07-26T10:54:52.218Z,5.00
2023-07-26T10:57:38.224Z,5.75
2023-07-26T11:00:17.678Z,5.00
2023-07-26T11:02:51.480Z,5.00
2023-07-26T11:05:21.891Z,5.25
2023-07-26T11:08:07.131Z,5.00
2023-07-26T11:10:36.587Z,5.00
2023-07-26T11:13:07.078Z,5.00
2023-07-26T11:15:48.300Z,5.00
2023-07-26T11:18:26.381Z,5.00
2023-07-26T11:20:56.426Z,5.00
2023-07-26T11:23:28.879Z,5.00
2023-07-26T11:25:59.600Z,5.00
2023-07-26T11:28:32.966Z,5.25
2023-07-26T11:31:01.952Z,5.00
2023-07-26T11:33:35.550Z,5.25
2023-07-26T11:36:05.722Z,5.67
2023-07-26T11:38:34.530Z,5.25
2023-07-26T11:41:03.567Z,5.00
2023-07-26T11:43:32.597Z,5.00
2023-07-26T11:46:01.020Z,5.00
2023-07-26T11:48:34.545Z,5.00
2023-07-26T11:51:07.350Z,5.25
2023-07-26T11:56:08.910Z,5.25
2023-07-26T11:58:37.691Z,5.25
2023-07-26T12:01:06.940Z,5.00
2023-07-26T12:03:36.996Z,5.00
2023-07-26T12:06:09.399Z,5.25
2023-07-26T12:08:39.510Z,5.25
2023-07-26T12:11:08.674Z,5.25
2023-07-26T12:13:38.446Z,5.00
2023-07-26T12:16:07.158Z,5.00
2023-07-26T12:18:35.952Z,5.00
2023-07-26T12:21:08.480Z,5.00
2023-07-26T12:24:01.903Z,5.00
2023-07-26T12:26:38.159Z,5.25
2023-07-26T12:29:07.672Z,5.00
2023-07-26T12:31:38.917Z,5.00
2023-07-26T12:34:10.127Z,5.00
2023-07-26T12:36:41.163Z,5.00
2023-07-26T12:39:10.790Z,5.00
2023-07-26T12:41:44.251Z,5.00
2023-07-26T12:44:18.167Z,5.33
2023-07-26T12:49:20.025Z,5.00
2023-07-26T12:51:50.492Z,5.00
2023-07-26T12:54:19.987Z,5.00
2023-07-26T12:56:48.432Z,5.00
2023-07-26T12:59:17.019Z,5.00
2023-07-26T13:01:45.480Z,5.00
2023-07-26T13:04:14.197Z,5.00
2023-07-26T13:06:42.680Z,5.00
2023-07-26T13:09:11.329Z,5.00
2023-07-26T13:11:39.991Z,5.00
2023-07-26T13:14:08.785Z,5.00
2023-07-26T13:16:37.302Z,5.00
2023-07-26T13:19:06.316Z,5.00
2023-07-26T13:21:34.674Z,5.00
2023-07-26T13:24:03.334Z,5.00
2023-07-26T13:26:32.020Z,5.00
2023-07-26T13:29:00.928Z,5.00
2023-07-26T13:31:29.249Z,5.25
2023-07-26T13:33:57.912Z,5.25
2023-07-26T13:36:26.264Z,5.00
2023-07-26T13:38:54.900Z,5.25
2023-07-26T13:41:23.270Z,5.00
2023-07-26T13:43:52.322Z,5.00
2023-07-26T13:46:38.328Z,5.00
2023-07-26T13:49:07.516Z,5.00
2023-07-26T13:51:36.082Z,5.00
2023-07-26T13:54:05.100Z,5.00
2023-07-26T13:56:33.956Z,5.00
2023-07-26T13:59:02.836Z,5.00
2023-07-26T14:01:33.406Z,5.00
2023-07-26T14:04:03.393Z,5.00
2023-07-26T14:06:32.492Z,5.00
2023-07-26T14:09:01.396Z,5.00
2023-07-26T14:11:29.966Z,5.00
2023-07-26T14:13:59.663Z,5.00
2023-07-26T14:16:28.027Z,5.00
2023-07-26T14:18:56.702Z,5.00
2023-07-26T14:21:24.971Z,5.00
2023-07-26T14:23:53.834Z,5.00
2023-07-26T14:26:22.180Z,5.00
2023-07-26T14:28:50.844Z,5.00
2023-07-26T14:31:19.160Z,5.00
2023-07-26T14:33:47.934Z,5.00
2023-07-26T14:36:16.251Z,5.00
2023-07-26T14:38:44.818Z,5.00
2023-07-26T14:41:13.095Z,5.00
2023-07-26T14:43:41.836Z,5.00
2023-07-26T14:46:10.348Z,5.00
2023-07-26T14:48:39.023Z,5.00
2023-07-26T14:51:07.290Z,5.00
2023-07-26T14:53:35.998Z,5.00
2023-07-26T14:56:04.569Z,5.00
2023-07-26T14:58:33.084Z,5.00
2023-07-26T15:01:01.758Z,5.00
2023-07-26T15:03:30.602Z,5.00
2023-07-26T15:05:59.261Z,5.00
2023-07-26T15:08:28.029Z,5.00
2023-07-26T15:10:56.372Z,5.00
2023-07-26T15:13:25.033Z,5.00
2023-07-26T15:15:53.326Z,5.00
2023-07-26T15:18:22.086Z,5.00
2023-07-26T15:20:52.346Z,5.00
2023-07-26T15:23:21.356Z,5.50
2023-07-26T15:25:50.117Z,5.00
2023-07-26T15:28:18.737Z,5.00
2023-07-26T15:30:47.347Z,5.00
2023-07-26T15:33:16.165Z,5.00
2023-07-26T15:35:44.500Z,5.00
2023-07-26T15:38:15.984Z,5.00
2023-07-26T15:48:19.150Z,5.00
2023-07-26T15:53:19.066Z,6.00
2023-07-26T15:55:49.499Z,5.00
2023-07-26T15:58:27.771Z,5.00
2023-07-26T16:00:59.157Z,5.00
2023-07-26T16:11:02.256Z,5.00
2023-07-26T16:13:30.911Z,5.00
2023-07-26T16:18:31.359Z,5.25
2023-07-26T16:23:32.336Z,5.00
2023-07-26T16:26:00.796Z,5.00
2023-07-26T16:28:29.641Z,5.00
2023-07-26T16:30:57.967Z,5.00
2023-07-26T16:33:26.662Z,5.00
2023-07-26T16:35:56.621Z,5.00
2023-07-26T16:38:25.320Z,5.00
2023-07-26T16:40:53.981Z,5.00
2023-07-26T16:43:22.607Z,5.00
2023-07-26T16:45:50.961Z,5.00
2023-07-26T16:48:19.627Z,5.00
2023-07-26T16:50:48.055Z,5.00
2023-07-26T16:53:16.667Z,5.00
2023-07-26T16:55:44.961Z,5.00
2023-07-26T16:58:13.639Z,5.00
2023-07-26T17:00:43.364Z,5.00
2023-07-26T17:03:12.596Z,5.00
2023-07-26T17:05:41.378Z,5.00
2023-07-26T17:08:10.246Z,5.00
2023-07-26T17:10:38.670Z,5.25
2023-07-26T17:13:07.332Z,5.00
2023-07-26T17:15:35.721Z,5.00
2023-07-26T17:18:04.595Z,5.00
2023-07-26T17:20:32.965Z,5.00
2023-07-26T17:23:01.738Z,5.00
2023-07-26T17:25:30.094Z,5.00
2023-07-26T17:27:58.814Z,5.25
2023-07-26T17:30:27.094Z,5.00
2023-07-26T17:32:55.809Z,5.00
2023-07-26T17:35:28.238Z,5.00
2023-07-26T17:37:56.874Z,5.00
2023-07-26T17:40:26.555Z,5.00
2023-07-26T17:42:55.377Z,5.00
2023-07-26T17:45:23.827Z,5.00
2023-07-26T17:47:52.734Z,5.00
2023-07-26T17:50:21.383Z,5.00
2023-07-26T17:52:50.544Z,5.00
2023-07-26T17:55:19.553Z,5.00
2023-07-26T17:57:58.899Z,5.00
2023-07-26T18:00:31.684Z,5.00
2023-07-26T18:03:00.390Z,5.00
2023-07-26T18:05:29.122Z,5.25
2023-07-26T18:07:57.877Z,5.00
2023-07-26T18:10:26.246Z,5.25
2023-07-26T18:12:55.317Z,5.00
2023-07-26T18:15:23.612Z,5.00
2023-07-26T18:17:52.312Z,5.00
2023-07-26T18:20:20.556Z,5.00
2023-07-26T18:22:49.177Z,5.00
2023-07-26T18:25:17.528Z,5.25
2023-07-26T18:27:46.407Z,5.00
2023-07-26T18:30:14.660Z,5.00
2023-07-26T18:32:43.590Z,5.00
2023-07-26T18:35:11.942Z,5.00
2023-07-26T18:37:41.797Z,5.00
2023-07-26T18:40:11.174Z,5.00
2023-07-26T18:42:39.840Z,5.00
2023-07-26T18:45:08.726Z,5.00
2023-07-26T18:47:37.338Z,5.00
2023-07-26T18:50:05.923Z,5.25
2023-07-26T18:52:34.603Z,5.00
2023-07-26T18:55:02.938Z,6.00
2023-07-26T18:57:31.569Z,5.00
2023-07-26T19:00:01.578Z,5.50
2023-07-26T19:02:30.395Z,5.00
2023-07-26T19:04:58.775Z,5.00
2023-07-26T19:07:27.499Z,6.50
2023-07-26T19:09:57.545Z,5.00
2023-07-26T19:12:26.249Z,5.00
2023-07-26T19:14:54.626Z,5.50
2023-07-26T19:17:23.336Z,5.50
2023-07-26T19:19:52.191Z,5.67
2023-07-26T19:22:20.855Z,6.00
2023-07-26T19:24:49.288Z,5.50
2023-07-26T19:27:18.221Z,5.75
2023-07-26T19:29:46.764Z,6.00
2023-07-26T19:32:15.700Z,5.75
2023-07-26T19:34:43.974Z,6.00
2023-07-26T19:37:12.770Z,6.00
2023-07-26T19:39:41.066Z,5.50
2023-07-26T19:42:10.067Z,5.00
2023-07-26T19:44:38.539Z,5.75
2023-07-26T19:47:07.257Z,5.25
2023-07-26T19:49:36.323Z,5.67
2023-07-26T19:52:09.382Z,5.00
2023-07-26T19:54:38.426Z,5.00
2023-07-26T19:57:07.156Z,6.00
2023-07-26T19:59:35.827Z,5.00
2023-07-26T20:02:04.931Z,5.50
2023-07-26T20:04:36.150Z,5.25
2023-07-26T20:07:05.165Z,5.75
2023-07-26T20:09:35.006Z,5.00
2023-07-26T20:12:04.574Z,5.00
2023-07-26T20:14:33.957Z,5.00
2023-07-26T20:17:02.920Z,5.25
2023-07-26T20:19:31.406Z,5.50
2023-07-26T20:22:00.456Z,6.25
2023-07-26T20:24:28.907Z,5.00
2023-07-26T20:26:57.728Z,5.50
2023-07-26T20:29:26.427Z,5.00
2023-07-26T20:31:55.191Z,5.00
2023-07-26T20:34:23.520Z,5.00
2023-07-26T20:36:52.324Z,5.00
2023-07-26T20:39:20.590Z,5.00
2023-07-26T20:41:49.519Z,5.00
2023-07-26T20:44:17.857Z,5.00
2023-07-26T20:46:46.804Z,5.00
2023-07-26T20:49:15.631Z,5.00
2023-07-26T20:51:45.983Z,5.00
2023-07-26T20:54:14.321Z,5.00
2023-07-26T20:56:43.070Z,5.25
2023-07-26T20:59:11.391Z,6.00
2023-07-26T21:01:40.061Z,5.00
2023-07-26T21:04:08.427Z,5.00
2023-07-26T21:06:37.233Z,5.00
2023-07-26T21:09:05.903Z,5.00
2023-07-26T21:11:35.094Z,5.00
2023-07-26T21:14:03.638Z,5.00
2023-07-26T21:16:32.815Z,5.00
2023-07-26T21:19:01.276Z,5.25
2023-07-26T21:21:29.837Z,5.00
2023-07-26T21:23:58.194Z,5.00
2023-07-26T21:26:26.860Z,5.00
2023-07-26T21:28:55.089Z,5.00
2023-07-26T21:31:25.089Z,5.00
2023-07-26T21:33:53.453Z,5.00
2023-07-26T21:36:22.138Z,5.00
2023-07-26T21:38:50.439Z,5.00
2023-07-26T21:41:19.220Z,5.00
2023-07-26T21:43:47.587Z,5.00
2023-07-26T21:46:16.330Z,5.00
2023-07-26T21:48:44.700Z,5.00
2023-07-26T21:51:13.365Z,5.00
2023-07-26T21:53:41.735Z,5.00
2023-07-26T21:56:10.844Z,5.00
2023-07-26T21:58:39.117Z,5.00
2023-07-26T22:01:08.148Z,5.00
2023-07-26T22:03:36.781Z,5.00
2023-07-26T22:06:08.576Z,5.00
2023-07-26T22:08:36.851Z,5.00
2023-07-26T22:11:05.428Z,5.00
2023-07-26T22:13:33.715Z,5.25
2023-07-26T22:16:02.454Z,5.25
2023-07-26T22:18:32.294Z,5.00
2023-07-26T22:23:35.394Z,5.00
2023-07-26T22:26:14.530Z,5.25
2023-07-26T22:28:47.653Z,5.00
2023-07-26T22:31:17.848Z,5.00
2023-07-26T22:33:46.225Z,5.00
2023-07-26T22:36:15.250Z,5.25
2023-07-26T22:38:43.477Z,5.00
2023-07-26T22:41:12.140Z,5.00
2023-07-26T22:43:40.403Z,5.00
2023-07-26T22:46:12.509Z,5.00
2023-07-26T22:48:43.367Z,5.00
2023-07-26T22:51:15.385Z,5.00
2023-07-26T22:53:43.641Z,5.00
2023-07-26T22:56:14.029Z,5.25
2023-07-26T22:58:42.407Z,5.00
2023-07-26T23:01:11.506Z,5.25
2023-07-26T23:03:39.984Z,5.00
2023-07-26T23:06:08.850Z,5.00
2023-07-26T23:08:37.290Z,5.00
2023-07-26T23:11:07.226Z,5.00
2023-07-26T23:13:36.536Z,5.00
2023-07-26T23:16:06.635Z,5.00
2023-07-26T23:18:35.044Z,5.00
2023-07-26T23:21:03.754Z,5.00
2023-07-26T23:23:31.966Z,5.00
2023-07-26T23:26:00.501Z,5.00
2023-07-26T23:28:28.732Z,5.00
2023-07-26T23:30:57.509Z,5.25
2023-07-26T23:33:25.877Z,5.00
2023-07-26T23:35:54.434Z,5.25
2023-07-26T23:38:22.844Z,5.00
2023-07-26T23:40:51.517Z,5.00
2023-07-26T23:43:19.815Z,5.00
2023-07-26T23:45:48.426Z,5.00
2023-07-26T23:48:18.359Z,5.00
2023-07-26T23:50:47.196Z,5.25
2023-07-26T23:53:15.491Z,5.00
2023-07-26T23:55:45.183Z,5.00
2023-07-26T23:58:15.197Z,5.00
